createdAt,value
2022-12-29T00:01:08.661Z,11.40
2022-12-29T00:03:37.605Z,11.50
2022-12-29T00:06:08.004Z,11.60
2022-12-29T00:08:42.988Z,12.10
2022-12-29T00:11:15.351Z,11.80
2022-12-29T00:14:03.276Z,11.50
2022-12-29T00:16:33.567Z,11.10
2022-12-29T00:19:05.849Z,11.10
2022-12-29T00:21:52.626Z,12.20
2022-12-29T00:24:23.183Z,11.90
2022-12-29T00:27:16.596Z,10.80
2022-12-29T00:30:05.706Z,11.40
2022-12-29T00:32:53.114Z,11.20
2022-12-29T00:35:33.933Z,11.60
2022-12-29T00:38:25.713Z,11.40
2022-12-29T00:41:12.702Z,10.70
2022-12-29T00:44:00.155Z,11.50
2022-12-29T00:46:30.496Z,12.40
2022-12-29T00:49:18.132Z,12.80
2022-12-29T00:51:47.855Z,11.70
2022-12-29T00:54:18.121Z,11.80
2022-12-29T00:56:52.744Z,11.50
2022-12-29T00:59:22.096Z,11.70
2022-12-29T01:01:53.482Z,10.60
2022-12-29T01:04:25.812Z,12.00
2022-12-29T01:06:55.170Z,11.70
2022-12-29T01:09:42.702Z,10.90
2022-12-29T01:12:12.344Z,11.70
2022-12-29T01:14:41.572Z,11.00
2022-12-29T01:17:13.442Z,13.10
2022-12-29T01:19:42.812Z,11.30
2022-12-29T01:22:11.721Z,11.70
2022-12-29T01:24:40.580Z,13.20
2022-12-29T01:27:09.520Z,13.00
2022-12-29T01:29:38.382Z,11.50
2022-12-29T01:32:07.729Z,11.50
2022-12-29T01:34:36.668Z,11.80
2022-12-29T01:37:05.905Z,11.90
2022-12-29T01:39:34.803Z,11.80
2022-12-29T01:42:03.796Z,10.40
2022-12-29T01:45:04.893Z,11.40
2022-12-29T01:48:00.344Z,11.40
2022-12-29T01:50:51.182Z,11.70
2022-12-29T01:53:34.232Z,11.20
2022-12-29T01:56:09.376Z,10.90
2022-12-29T01:58:46.185Z,11.90
2022-12-29T02:01:16.742Z,12.70
2022-12-29T02:03:48.087Z,11.90
2022-12-29T02:06:30.783Z,11.40
2022-12-29T02:09:00.245Z,12.30
2022-12-29T02:11:31.250Z,12.00
2022-12-29T02:14:03.544Z,12.80
2022-12-29T02:17:04.449Z,13.10
2022-12-29T02:19:57.901Z,12.50
2022-12-29T02:23:00.817Z,15.80
2022-12-29T02:26:04.102Z,14.60
2022-12-29T02:28:47.971Z,17.10
2022-12-29T02:31:31.619Z,18.70
2022-12-29T02:34:36.887Z,16.00
2022-12-29T02:37:19.104Z,16.10
2022-12-29T02:40:15.119Z,13.80
2022-12-29T02:43:23.020Z,12.80
2022-12-29T02:46:38.392Z,14.00
2022-12-29T02:49:30.484Z,13.00
2022-12-29T02:52:09.167Z,12.40
2022-12-29T02:54:44.101Z,12.50
2022-12-29T02:57:32.865Z,13.00
2022-12-29T03:00:09.391Z,12.70
2022-12-29T03:03:05.402Z,13.20
2022-12-29T03:06:20.177Z,13.40
2022-12-29T03:09:03.626Z,12.80
2022-12-29T03:14:57.689Z,12.10
2022-12-29T03:17:41.303Z,13.80
2022-12-29T03:20:18.929Z,11.50
2022-12-29T03:22:52.709Z,11.50
2022-12-29T03:25:40.462Z,13.60
2022-12-29T03:28:22.648Z,11.80
2022-12-29T03:30:51.919Z,12.90
2022-12-29T03:33:28.834Z,11.90
2022-12-29T03:36:06.341Z,11.50
2022-12-29T03:39:19.605Z,11.70
2022-12-29T03:41:52.254Z,12.10
2022-12-29T03:44:22.435Z,11.70
2022-12-29T03:46:51.631Z,11.50
2022-12-29T03:49:20.878Z,11.00
2022-12-29T03:51:51.915Z,10.50
2022-12-29T03:54:21.820Z,12.30
2022-12-29T03:56:51.031Z,11.70
2022-12-29T03:59:24.530Z,12.50
2022-12-29T04:01:53.586Z,11.40
2022-12-29T04:04:23.521Z,12.30
2022-12-29T04:06:52.488Z,10.80
2022-12-29T04:09:21.540Z,12.20
2022-12-29T04:11:51.704Z,12.60
2022-12-29T04:14:21.337Z,11.50
2022-12-29T04:16:50.263Z,12.90
2022-12-29T04:19:19.314Z,14.30
2022-12-29T04:21:49.787Z,12.70
2022-12-29T04:24:19.039Z,12.00
2022-12-29T04:26:49.924Z,11.20
2022-12-29T04:29:36.047Z,11.40
2022-12-29T04:32:07.720Z,12.10
2022-12-29T04:34:40.687Z,12.90
2022-12-29T04:37:09.503Z,11.80
2022-12-29T04:39:38.465Z,13.80
2022-12-29T04:42:08.599Z,12.30
2022-12-29T04:44:42.968Z,12.50
2022-12-29T04:47:17.641Z,12.60
2022-12-29T04:49:57.112Z,12.40
2022-12-29T04:53:16.265Z,13.30
2022-12-29T04:55:50.951Z,12.20
2022-12-29T04:58:23.859Z,13.00
2022-12-29T05:00:54.151Z,12.80
2022-12-29T05:03:25.835Z,12.70
2022-12-29T05:05:56.935Z,11.70
2022-12-29T05:08:28.254Z,12.00
2022-12-29T05:10:58.634Z,12.20
2022-12-29T05:13:28.416Z,12.60
2022-12-29T05:15:57.825Z,14.30
2022-12-29T05:18:26.936Z,14.60
2022-12-29T05:20:56.297Z,14.50
2022-12-29T05:23:26.069Z,15.50
2022-12-29T05:26:01.858Z,14.10
2022-12-29T05:28:58.752Z,15.10
2022-12-29T05:31:28.462Z,14.70
2022-12-29T05:33:57.451Z,14.90
2022-12-29T05:36:26.896Z,13.60
2022-12-29T05:41:30.368Z,13.60
2022-12-29T05:44:15.911Z,14.70
2022-12-29T05:47:30.772Z,15.00
2022-12-29T05:50:26.585Z,13.90
2022-12-29T05:53:46.346Z,15.10
2022-12-29T05:56:16.773Z,15.50
2022-12-29T05:58:48.929Z,17.10
2022-12-29T06:01:18.102Z,17.10
2022-12-29T06:03:48.512Z,17.10
2022-12-29T06:06:18.661Z,16.90
2022-12-29T06:08:48.305Z,21.30
2022-12-29T06:11:18.792Z,18.70
2022-12-29T06:13:52.816Z,18.60
2022-12-29T06:16:23.419Z,19.10
2022-12-29T06:18:56.187Z,18.40
2022-12-29T06:21:25.212Z,19.00
2022-12-29T06:23:54.972Z,18.90
2022-12-29T06:26:24.201Z,18.10
2022-12-29T06:28:53.618Z,20.50
2022-12-29T06:31:23.238Z,19.50
2022-12-29T06:33:53.303Z,21.50
2022-12-29T06:36:22.149Z,13.60
2022-12-29T06:38:53.697Z,16.70
2022-12-29T06:41:29.988Z,16.80
2022-12-29T06:45:00.137Z,14.90
2022-12-29T06:47:29.246Z,16.60
2022-12-29T06:49:58.166Z,16.90
2022-12-29T06:52:27.129Z,21.60
2022-12-29T06:54:56.612Z,17.00
2022-12-29T06:57:27.716Z,17.70
2022-12-29T06:59:59.160Z,17.10
2022-12-29T07:02:29.221Z,17.30
2022-12-29T07:04:58.899Z,17.50
2022-12-29T07:07:27.606Z,17.80
2022-12-29T07:09:56.511Z,14.80
2022-12-29T07:12:25.504Z,14.70
2022-12-29T07:14:54.521Z,14.40
2022-12-29T07:17:23.566Z,14.60
2022-12-29T07:19:52.796Z,13.70
2022-12-29T07:22:22.017Z,12.80
2022-12-29T07:24:50.954Z,14.10
2022-12-29T07:27:19.702Z,12.90
2022-12-29T07:29:49.360Z,13.30
2022-12-29T07:32:20.221Z,14.90
2022-12-29T07:34:50.744Z,12.10
2022-12-29T07:37:19.886Z,13.30
2022-12-29T07:39:48.891Z,11.80
2022-12-29T07:42:17.717Z,13.20
2022-12-29T07:44:52.549Z,11.00
2022-12-29T07:47:29.040Z,10.70
2022-12-29T07:49:57.852Z,12.60
2022-12-29T07:52:31.584Z,12.20
2022-12-29T07:55:00.532Z,11.40
2022-12-29T07:57:32.147Z,11.80
2022-12-29T08:00:03.380Z,11.90
2022-12-29T08:02:41.358Z,12.70
2022-12-29T08:05:10.427Z,11.90
2022-12-29T08:07:39.316Z,12.90
2022-12-29T08:10:11.714Z,11.80
2022-12-29T08:12:40.822Z,12.20
2022-12-29T08:15:12.587Z,11.70
2022-12-29T08:17:41.741Z,11.90
2022-12-29T08:20:11.240Z,12.20
2022-12-29T08:22:41.865Z,11.30
2022-12-29T08:25:11.123Z,12.70
2022-12-29T08:27:40.111Z,12.50
2022-12-29T08:30:10.101Z,12.70
2022-12-29T08:32:38.947Z,12.30
2022-12-29T08:35:08.305Z,13.10
2022-12-29T08:37:37.151Z,11.80
2022-12-29T08:40:07.084Z,14.50
2022-12-29T08:42:36.028Z,12.40
2022-12-29T08:45:05.486Z,11.80
2022-12-29T08:47:34.306Z,12.30
2022-12-29T08:50:03.803Z,12.70
2022-12-29T08:52:32.603Z,12.30
2022-12-29T08:55:01.507Z,11.70
2022-12-29T08:57:31.887Z,12.80
2022-12-29T09:00:12.689Z,13.00
2022-12-29T09:02:41.762Z,12.50
2022-12-29T09:05:11.060Z,11.60
2022-12-29T09:07:48.765Z,13.00
2022-12-29T09:10:17.730Z,13.30
2022-12-29T09:12:46.637Z,13.30
2022-12-29T09:15:16.766Z,11.90
2022-12-29T09:17:45.655Z,13.40
2022-12-29T09:20:18.503Z,13.50
2022-12-29T09:22:48.439Z,13.30
2022-12-29T09:25:17.886Z,14.50
2022-12-29T09:27:48.920Z,12.60
2022-12-29T09:30:17.864Z,14.10
2022-12-29T09:32:50.726Z,14.10
2022-12-29T09:35:22.281Z,14.30
2022-12-29T09:37:51.093Z,14.30
2022-12-29T09:40:31.808Z,15.10
2022-12-29T09:43:22.461Z,12.40
2022-12-29T09:46:27.063Z,15.00
2022-12-29T09:49:08.997Z,14.30
2022-12-29T09:51:41.559Z,14.20
2022-12-29T09:54:25.946Z,14.60
2022-12-29T09:56:55.384Z,15.20
2022-12-29T09:59:41.343Z,13.90
2022-12-29T10:02:35.744Z,15.90
2022-12-29T10:05:13.930Z,15.30
2022-12-29T10:08:06.808Z,13.90
2022-12-29T10:10:57.920Z,14.40
2022-12-29T10:14:18.653Z,14.50
2022-12-29T10:17:05.931Z,14.70
2022-12-29T10:19:52.149Z,14.20
2022-12-29T10:22:40.286Z,15.10
2022-12-29T10:25:21.170Z,14.30
2022-12-29T10:27:55.421Z,14.30
2022-12-29T10:30:25.244Z,13.70
2022-12-29T10:32:59.565Z,13.60
2022-12-29T10:35:38.424Z,14.90
2022-12-29T10:38:39.193Z,16.00
2022-12-29T10:41:29.132Z,16.20
2022-12-29T10:43:59.033Z,14.30
2022-12-29T10:46:37.965Z,13.90
2022-12-29T10:49:21.520Z,15.60
2022-12-29T10:51:53.262Z,14.00
2022-12-29T10:54:48.322Z,13.90
2022-12-29T10:57:50.153Z,15.00
2022-12-29T11:00:22.486Z,15.50
2022-12-29T11:03:29.182Z,14.40
2022-12-29T11:06:03.839Z,13.80
2022-12-29T11:08:40.347Z,15.00
2022-12-29T11:11:11.434Z,15.10
2022-12-29T11:14:11.602Z,15.90
2022-12-29T11:16:42.943Z,16.00
2022-12-29T11:19:28.110Z,15.10
2022-12-29T11:21:56.984Z,15.90
2022-12-29T11:24:29.592Z,15.20
2022-12-29T11:27:26.213Z,14.90
2022-12-29T11:29:55.692Z,15.60
2022-12-29T11:32:33.122Z,15.30
2022-12-29T11:35:05.376Z,15.10
2022-12-29T11:37:40.879Z,15.10
2022-12-29T11:40:22.480Z,15.90
2022-12-29T11:43:34.815Z,13.90
2022-12-29T11:46:05.518Z,14.20
2022-12-29T11:48:41.515Z,17.30
2022-12-29T11:51:13.148Z,14.30
2022-12-29T11:53:52.791Z,13.00
2022-12-29T11:56:39.964Z,13.90
2022-12-29T11:59:31.161Z,14.10
2022-12-29T12:02:04.338Z,14.70
2022-12-29T12:04:38.817Z,14.00
2022-12-29T12:07:32.032Z,13.40
2022-12-29T12:10:07.987Z,14.60
2022-12-29T12:12:55.329Z,13.70
2022-12-29T12:15:47.484Z,13.70
2022-12-29T12:18:18.534Z,14.80
2022-12-29T12:20:52.120Z,14.60
2022-12-29T12:24:02.152Z,14.20
2022-12-29T12:26:57.306Z,15.00
2022-12-29T12:29:45.378Z,14.90
2022-12-29T12:32:53.711Z,14.70
2022-12-29T12:35:47.105Z,13.80
2022-12-29T12:39:09.946Z,13.90
2022-12-29T12:42:25.756Z,14.10
2022-12-29T12:45:19.058Z,14.10
2022-12-29T12:48:08.073Z,15.10
2022-12-29T12:50:48.895Z,15.30
2022-12-29T12:53:35.236Z,14.80
2022-12-29T12:56:32.985Z,14.30
2022-12-29T12:59:46.475Z,15.50
2022-12-29T13:02:34.212Z,17.10
2022-12-29T13:05:26.913Z,16.40
2022-12-29T13:08:31.827Z,15.50
2022-12-29T13:11:12.574Z,14.40
2022-12-29T13:14:17.781Z,14.80
2022-12-29T13:17:14.800Z,15.60
2022-12-29T13:20:11.393Z,14.40
2022-12-29T13:22:47.316Z,15.30
2022-12-29T13:25:37.448Z,14.90
2022-12-29T13:28:37.144Z,14.40
2022-12-29T13:31:21.379Z,14.90
2022-12-29T13:33:58.082Z,15.20
2022-12-29T13:36:38.471Z,16.50
2022-12-29T13:39:36.785Z,15.00
2022-12-29T13:42:06.664Z,13.80
2022-12-29T13:44:42.888Z,13.50
2022-12-29T13:47:34.767Z,15.00
2022-12-29T13:50:12.805Z,15.40
2022-12-29T13:53:29.097Z,14.90
2022-12-29T13:56:21.849Z,14.00
2022-12-29T13:59:30.525Z,13.30
2022-12-29T14:02:10.091Z,15.10
2022-12-29T14:05:06.468Z,14.70
2022-12-29T14:07:40.177Z,15.10
2022-12-29T14:10:36.946Z,15.20
2022-12-29T14:13:19.042Z,15.90
2022-12-29T14:16:00.125Z,15.30
2022-12-29T14:18:33.196Z,17.80
2022-12-29T14:21:29.141Z,31.60
2022-12-29T14:24:29.732Z,25.70
2022-12-29T14:26:58.920Z,18.60
2022-12-29T14:29:31.005Z,17.50
2022-12-29T14:32:00.268Z,17.80
2022-12-29T14:34:38.556Z,17.50
2022-12-29T14:37:27.257Z,17.20
2022-12-29T14:40:24.619Z,17.70
2022-12-29T14:42:57.721Z,17.80
2022-12-29T14:47:58.260Z,16.80
2022-12-29T14:50:42.752Z,17.10
2022-12-29T14:53:46.267Z,19.10
2022-12-29T14:56:20.095Z,18.50
2022-12-29T14:58:56.737Z,19.10
2022-12-29T15:01:53.748Z,18.30
2022-12-29T15:04:33.683Z,18.40
2022-12-29T15:07:08.751Z,17.80
2022-12-29T15:09:56.020Z,18.60
2022-12-29T15:12:56.953Z,18.70
2022-12-29T15:15:31.154Z,20.00
2022-12-29T15:18:15.286Z,20.40
2022-12-29T15:20:44.633Z,20.50
2022-12-29T15:23:17.659Z,20.50
2022-12-29T15:25:59.141Z,20.10
2022-12-29T15:28:38.986Z,19.30
2022-12-29T15:31:30.198Z,20.40
2022-12-29T15:34:23.312Z,19.40
2022-12-29T15:36:52.496Z,21.80
2022-12-29T15:39:30.070Z,21.50
2022-12-29T15:42:21.691Z,21.20
2022-12-29T15:44:57.741Z,22.60
2022-12-29T15:47:33.437Z,22.50
2022-12-29T15:50:23.509Z,23.20
2022-12-29T15:52:52.734Z,24.90
2022-12-29T15:55:34.163Z,25.20
2022-12-29T15:58:20.742Z,25.70
2022-12-29T16:01:01.825Z,26.40
2022-12-29T16:03:38.184Z,26.60
2022-12-29T16:06:34.736Z,25.00
2022-12-29T16:09:19.870Z,24.60
2022-12-29T16:11:56.415Z,30.10
2022-12-29T16:15:15.322Z,26.20
2022-12-29T16:17:54.646Z,28.40
2022-12-29T16:20:42.606Z,26.20
2022-12-29T16:23:26.653Z,26.40
2022-12-29T16:25:58.963Z,28.70
2022-12-29T16:28:43.616Z,27.30
2022-12-29T16:31:51.209Z,25.40
2022-12-29T16:34:29.636Z,23.40
2022-12-29T16:37:04.354Z,21.00
2022-12-29T16:39:37.330Z,23.60
2022-12-29T16:42:36.452Z,23.30
2022-12-29T16:45:20.352Z,23.10
2022-12-29T16:48:08.532Z,49.20
2022-12-29T16:50:44.939Z,25.00
2022-12-29T16:53:25.990Z,27.80
2022-12-29T16:55:56.872Z,25.50
2022-12-29T16:58:30.323Z,23.80
2022-12-29T17:01:04.137Z,23.80
2022-12-29T17:03:52.550Z,23.40
2022-12-29T17:06:24.012Z,26.70
2022-12-29T17:08:53.548Z,30.60
2022-12-29T17:12:08.377Z,29.10
2022-12-29T17:15:09.614Z,32.40
2022-12-29T17:17:45.501Z,36.20
2022-12-29T17:20:27.764Z,33.70
2022-12-29T17:22:58.181Z,37.20
2022-12-29T17:25:50.241Z,34.50
2022-12-29T17:28:22.155Z,35.10
2022-12-29T17:31:03.042Z,56.80
2022-12-29T17:33:40.356Z,46.80
2022-12-29T17:36:12.806Z,45.50
2022-12-29T17:38:42.221Z,47.30
2022-12-29T17:41:15.560Z,45.20
2022-12-29T17:43:44.387Z,49.10
2022-12-29T17:46:13.559Z,52.80
2022-12-29T17:48:43.851Z,50.60
2022-12-29T17:51:14.282Z,54.40
2022-12-29T17:53:43.138Z,51.00
2022-12-29T17:56:12.901Z,52.40
2022-12-29T17:58:41.660Z,43.40
2022-12-29T18:01:15.828Z,41.00
2022-12-29T18:03:45.352Z,43.40
2022-12-29T18:06:15.043Z,39.60
2022-12-29T18:08:45.131Z,38.30
2022-12-29T18:11:27.314Z,30.30
2022-12-29T18:13:56.965Z,31.70
2022-12-29T18:16:27.121Z,34.10
2022-12-29T18:18:56.683Z,26.90
2022-12-29T18:21:25.898Z,25.00
2022-12-29T18:23:55.538Z,26.70
2022-12-29T18:26:31.982Z,26.50
2022-12-29T18:29:01.855Z,27.40
2022-12-29T18:31:34.012Z,27.00
2022-12-29T18:34:13.752Z,26.70
2022-12-29T18:36:49.229Z,26.80
2022-12-29T18:39:18.924Z,28.10
2022-12-29T18:41:47.837Z,28.60
2022-12-29T18:44:24.816Z,31.80
2022-12-29T18:46:57.829Z,32.20
2022-12-29T18:49:26.898Z,33.20
2022-12-29T18:51:57.825Z,35.40
2022-12-29T18:54:32.752Z,33.20
2022-12-29T18:57:01.669Z,26.00
2022-12-29T18:59:30.744Z,28.90
2022-12-29T19:02:05.314Z,24.50
2022-12-29T19:04:36.825Z,26.90
2022-12-29T19:07:11.061Z,27.50
2022-12-29T19:09:43.185Z,58.50
2022-12-29T19:12:17.127Z,27.30
2022-12-29T19:14:46.812Z,28.80
2022-12-29T19:17:15.793Z,32.70
2022-12-29T19:19:45.496Z,32.30
2022-12-29T19:22:14.330Z,26.80
2022-12-29T19:24:46.077Z,25.10
2022-12-29T19:27:15.653Z,24.80
2022-12-29T19:29:49.834Z,24.80
2022-12-29T19:32:19.468Z,23.70
2022-12-29T19:34:49.060Z,25.20
2022-12-29T19:37:21.515Z,27.10
2022-12-29T19:39:54.649Z,24.90
2022-12-29T19:44:53.619Z,28.50
2022-12-29T19:47:27.059Z,25.60
2022-12-29T19:50:01.677Z,27.90
2022-12-29T19:52:32.199Z,26.40
2022-12-29T19:55:01.471Z,25.50
2022-12-29T19:57:31.293Z,27.90
2022-12-29T20:00:00.253Z,28.70
2022-12-29T20:02:34.829Z,26.70
2022-12-29T20:05:04.693Z,28.00
2022-12-29T20:07:34.014Z,29.10
2022-12-29T20:10:05.326Z,26.60
2022-12-29T20:12:44.001Z,27.20
2022-12-29T20:15:15.819Z,29.00
2022-12-29T20:18:11.428Z,27.20
2022-12-29T20:20:38.068Z,27.00
2022-12-29T20:23:12.828Z,25.60
2022-12-29T20:25:46.136Z,25.00
2022-12-29T20:28:16.913Z,25.00
2022-12-29T20:31:15.070Z,25.80
2022-12-29T20:33:48.284Z,22.60
2022-12-29T20:36:29.278Z,22.30
2022-12-29T20:39:03.436Z,23.80
2022-12-29T20:41:42.297Z,21.40
2022-12-29T20:44:17.638Z,24.10
2022-12-29T20:46:47.194Z,22.10
2022-12-29T20:49:21.237Z,21.80
2022-12-29T20:52:05.671Z,22.40
2022-12-29T20:54:39.498Z,24.20
2022-12-29T20:57:08.903Z,25.70
2022-12-29T20:59:38.182Z,24.50
2022-12-29T21:02:07.240Z,26.40
2022-12-29T21:05:05.420Z,26.80
2022-12-29T21:07:26.069Z,24.40
2022-12-29T21:09:55.688Z,22.20
2022-12-29T21:12:27.234Z,24.20
2022-12-29T21:14:57.479Z,24.40
2022-12-29T21:17:26.359Z,23.50
2022-12-29T21:19:56.797Z,21.10
2022-12-29T21:22:28.108Z,22.20
2022-12-29T21:24:57.052Z,23.10
2022-12-29T21:27:29.494Z,21.20
2022-12-29T21:29:59.008Z,21.50
2022-12-29T21:32:28.645Z,21.40
2022-12-29T21:34:58.131Z,20.10
2022-12-29T21:37:27.046Z,19.40
2022-12-29T21:40:02.796Z,19.00
2022-12-29T21:42:35.370Z,19.60
2022-12-29T21:45:25.495Z,19.70
2022-12-29T21:48:17.021Z,19.40
2022-12-29T21:51:08.352Z,21.90
2022-12-29T21:53:41.290Z,20.70
2022-12-29T21:59:09.930Z,21.30
2022-12-29T22:01:57.425Z,20.70
2022-12-29T22:04:44.931Z,22.90
2022-12-29T22:07:33.683Z,21.50
2022-12-29T22:10:21.169Z,21.70
2022-12-29T22:13:21.698Z,21.80
2022-12-29T22:15:52.666Z,20.60
2022-12-29T22:18:21.507Z,20.40
2022-12-29T22:20:50.449Z,20.30
2022-12-29T22:23:19.378Z,20.30
2022-12-29T22:25:48.858Z,18.80
2022-12-29T22:28:18.533Z,18.70
2022-12-29T22:30:47.445Z,18.70
2022-12-29T22:33:16.412Z,18.80
2022-12-29T22:35:45.807Z,20.10
2022-12-29T22:38:17.162Z,19.80
2022-12-29T22:40:47.383Z,20.80
2022-12-29T22:43:16.285Z,20.90
2022-12-29T22:45:45.220Z,20.50
2022-12-29T22:48:14.497Z,19.10
2022-12-29T22:50:43.604Z,18.80
2022-12-29T22:53:12.487Z,18.40
2022-12-29T22:55:41.259Z,21.50
2022-12-29T22:58:10.154Z,19.80
2022-12-29T23:00:39.070Z,22.00
2022-12-29T23:03:08.093Z,20.30
2022-12-29T23:05:37.197Z,22.00
2022-12-29T23:08:06.148Z,21.20
2022-12-29T23:10:35.119Z,23.50
2022-12-29T23:13:05.048Z,20.60
2022-12-29T23:15:33.763Z,21.10
2022-12-29T23:18:02.572Z,28.90
2022-12-29T23:20:40.475Z,29.70
2022-12-29T23:23:09.528Z,24.50
2022-12-29T23:25:41.384Z,25.30
2022-12-29T23:28:10.323Z,24.30
2022-12-29T23:30:39.082Z,22.30
2022-12-29T23:33:08.263Z,21.40
2022-12-29T23:35:37.216Z,21.80
2022-12-29T23:38:06.727Z,21.70
2022-12-29T23:40:35.506Z,22.50
2022-12-29T23:43:04.488Z,21.20
2022-12-29T23:45:39.143Z,21.30
2022-12-29T23:48:08.097Z,19.40
2022-12-29T23:50:43.114Z,20.40
2022-12-29T23:53:12.662Z,21.10
2022-12-29T23:55:44.364Z,21.50
2022-12-29T23:58:13.345Z,20.50
